createdAt,value
2023-03-16T00:01:11.847Z,1.00
2023-03-16T00:03:41.567Z,1.00
2023-03-16T00:06:11.493Z,0.90
2023-03-16T00:08:43.238Z,0.90
2023-03-16T00:11:15.600Z,0.90
2023-03-16T00:13:45.439Z,0.90
2023-03-16T00:16:17.237Z,0.90
2023-03-16T00:18:47.070Z,0.80
2023-03-16T00:21:17.495Z,0.80
2023-03-16T00:23:47.305Z,0.80
2023-03-16T00:26:19.984Z,0.90
2023-03-16T00:28:49.756Z,0.90
2023-03-16T00:31:19.653Z,0.90
2023-03-16T00:33:49.428Z,0.90
2023-03-16T00:36:19.631Z,0.90
2023-03-16T00:38:50.088Z,0.90
2023-03-16T00:41:22.992Z,0.90
2023-03-16T00:43:53.787Z,0.90
2023-03-16T00:46:26.538Z,0.70
2023-03-16T00:48:56.364Z,0.60
2023-03-16T00:51:26.160Z,0.60
2023-03-16T00:53:55.954Z,0.40
2023-03-16T00:56:29.065Z,0.40
2023-03-16T00:58:58.972Z,0.50
2023-03-16T01:01:28.774Z,0.40
2023-03-16T01:03:59.747Z,0.50
2023-03-16T01:06:29.773Z,0.50
2023-03-16T01:08:59.541Z,0.50
2023-03-16T01:11:33.740Z,0.50
2023-03-16T01:14:04.075Z,0.50
2023-03-16T01:16:34.113Z,0.50
2023-03-16T01:19:04.372Z,0.50
2023-03-16T01:21:34.494Z,0.60
2023-03-16T01:24:04.524Z,0.60
2023-03-16T01:26:36.971Z,0.60
2023-03-16T01:29:06.747Z,0.60
2023-03-16T01:31:36.539Z,0.60
2023-03-16T01:34:06.351Z,0.60
2023-03-16T01:36:36.125Z,0.60
2023-03-16T01:39:06.803Z,0.70
2023-03-16T01:41:39.350Z,0.70
2023-03-16T01:44:11.325Z,0.60
2023-03-16T01:46:41.872Z,0.50
2023-03-16T01:49:15.012Z,0.60
2023-03-16T01:51:47.959Z,0.60
2023-03-16T01:54:26.242Z,0.60
2023-03-16T01:57:04.692Z,0.70
2023-03-16T01:59:37.633Z,0.60
2023-03-16T02:02:08.672Z,0.60
2023-03-16T02:04:44.849Z,0.50
2023-03-16T02:07:17.701Z,0.50
2023-03-16T02:09:51.739Z,0.50
2023-03-16T02:12:25.039Z,0.40
2023-03-16T02:14:55.540Z,0.40
2023-03-16T02:17:28.014Z,0.40
2023-03-16T02:20:10.942Z,0.30
2023-03-16T02:22:45.494Z,0.30
2023-03-16T02:25:16.918Z,0.30
2023-03-16T02:27:55.983Z,0.30
2023-03-16T02:30:29.044Z,0.30
2023-03-16T02:32:59.489Z,0.20
2023-03-16T02:35:29.382Z,0.20
2023-03-16T02:37:59.189Z,0.20
2023-03-16T02:40:31.254Z,0.20
2023-03-16T02:43:04.518Z,0.10
2023-03-16T02:45:42.557Z,0.20
2023-03-16T02:48:16.728Z,0.20
2023-03-16T02:50:49.597Z,0.20
2023-03-16T02:53:19.907Z,0.20
2023-03-16T02:55:50.066Z,0.30
2023-03-16T02:58:20.307Z,0.30
2023-03-16T03:00:53.251Z,0.20
2023-03-16T03:03:23.195Z,0.20
2023-03-16T03:05:53.011Z,0.20
2023-03-16T03:08:23.537Z,0.20
2023-03-16T03:10:53.319Z,0.20
2023-03-16T03:13:24.140Z,0.30
2023-03-16T03:15:56.583Z,0.20
2023-03-16T03:18:27.168Z,0.10
2023-03-16T03:20:56.978Z,0.20
2023-03-16T03:23:26.838Z,0.10
2023-03-16T03:26:00.944Z,0.10
2023-03-16T03:28:30.723Z,0.10
2023-03-16T03:31:04.118Z,0.10
2023-03-16T03:33:34.008Z,0.10
2023-03-16T03:36:03.781Z,0.00
2023-03-16T03:38:33.561Z,0.10
2023-03-16T03:41:03.977Z,0.10
2023-03-16T03:43:33.750Z,0.10
2023-03-16T03:46:07.542Z,0.10
2023-03-16T03:48:38.804Z,0.00
2023-03-16T03:51:09.077Z,0.10
2023-03-16T03:53:38.955Z,0.10
2023-03-16T03:56:09.635Z,0.10
2023-03-16T03:58:39.727Z,0.10
2023-03-16T04:01:12.048Z,0.10
2023-03-16T04:03:44.809Z,0.10
2023-03-16T04:06:14.962Z,0.10
2023-03-16T04:08:45.105Z,0.20
2023-03-16T04:11:14.903Z,0.10
2023-03-16T04:13:44.726Z,0.10
2023-03-16T04:16:17.936Z,0.10
2023-03-16T04:18:47.767Z,0.10
2023-03-16T04:21:19.296Z,0.10
2023-03-16T04:23:49.435Z,0.10
2023-03-16T04:26:19.609Z,0.00
2023-03-16T04:28:49.450Z,0.10
2023-03-16T04:31:22.595Z,0.20
2023-03-16T04:33:54.623Z,0.10
2023-03-16T04:36:26.128Z,0.10
2023-03-16T04:38:55.875Z,0.10
2023-03-16T04:41:26.332Z,0.10
2023-03-16T04:43:57.696Z,0.10
2023-03-16T04:46:30.360Z,0.10
2023-03-16T04:49:00.225Z,0.10
2023-03-16T04:51:30.495Z,0.10
2023-03-16T04:54:00.894Z,0.10
2023-03-16T04:56:30.616Z,0.10
2023-03-16T04:59:00.443Z,0.00
2023-03-16T05:01:33.015Z,0.00
2023-03-16T05:04:02.979Z,0.00
2023-03-16T05:06:32.916Z,0.10
2023-03-16T05:09:05.597Z,0.00
2023-03-16T05:11:35.364Z,0.10
2023-03-16T05:14:05.349Z,0.10
2023-03-16T05:16:37.818Z,0.10
2023-03-16T05:19:07.611Z,0.10
2023-03-16T05:21:38.763Z,0.10
2023-03-16T05:24:09.348Z,0.10
2023-03-16T05:26:39.106Z,0.10
2023-03-16T05:29:08.961Z,0.10
2023-03-16T05:31:41.391Z,0.20
2023-03-16T05:34:12.397Z,0.20
2023-03-16T05:36:42.129Z,0.20
2023-03-16T05:39:11.893Z,0.30
2023-03-16T05:41:41.819Z,0.30
2023-03-16T05:44:11.919Z,0.30
2023-03-16T05:46:45.961Z,0.30
2023-03-16T05:49:16.115Z,0.30
2023-03-16T05:51:46.114Z,0.40
2023-03-16T05:54:15.859Z,0.40
2023-03-16T05:56:45.710Z,0.40
2023-03-16T05:59:15.707Z,0.50
2023-03-16T06:01:49.498Z,0.50
2023-03-16T06:04:19.444Z,0.60
2023-03-16T06:06:49.224Z,0.60
2023-03-16T06:09:19.101Z,0.70
2023-03-16T06:11:48.931Z,0.70
2023-03-16T06:14:18.710Z,0.80
2023-03-16T06:16:51.092Z,0.80
2023-03-16T06:19:21.708Z,0.90
2023-03-16T06:21:51.474Z,1.00
2023-03-16T06:24:21.292Z,1.00
2023-03-16T06:26:51.010Z,1.00
2023-03-16T06:29:20.744Z,1.10
2023-03-16T06:31:54.704Z,1.10
2023-03-16T06:34:24.597Z,1.10
2023-03-16T06:36:54.349Z,1.20
2023-03-16T06:39:24.103Z,1.30
2023-03-16T06:41:53.843Z,1.40
2023-03-16T06:44:23.753Z,1.40
2023-03-16T06:46:56.401Z,1.40
2023-03-16T06:49:26.197Z,1.50
2023-03-16T06:51:56.692Z,1.50
2023-03-16T06:54:27.008Z,1.50
2023-03-16T06:56:56.816Z,1.50
2023-03-16T06:59:26.729Z,1.50
2023-03-16T07:01:59.045Z,1.50
2023-03-16T07:04:28.984Z,1.70
2023-03-16T07:06:58.785Z,1.80
2023-03-16T07:09:29.226Z,1.90
2023-03-16T07:11:59.079Z,1.90
2023-03-16T07:14:28.866Z,1.90
2023-03-16T07:17:01.716Z,2.20
2023-03-16T07:19:31.989Z,2.20
2023-03-16T07:22:02.851Z,2.30
2023-03-16T07:24:33.261Z,2.20
2023-03-16T07:27:03.091Z,2.30
2023-03-16T07:29:32.860Z,2.40
2023-03-16T07:32:05.233Z,2.50
2023-03-16T07:34:35.321Z,2.70
2023-03-16T07:37:05.358Z,2.60
2023-03-16T07:39:35.140Z,2.60
2023-03-16T07:42:04.935Z,2.70
2023-03-16T07:44:34.940Z,2.80
2023-03-16T07:47:07.638Z,2.90
2023-03-16T07:49:37.513Z,3.00
2023-03-16T07:52:07.644Z,3.10
2023-03-16T07:54:37.695Z,3.30
2023-03-16T07:57:07.562Z,3.40
2023-03-16T07:59:38.526Z,3.40
2023-03-16T08:02:15.168Z,3.50
2023-03-16T08:04:45.067Z,3.60
2023-03-16T08:07:16.553Z,3.80
2023-03-16T08:09:46.686Z,3.90
2023-03-16T08:12:16.622Z,4.00
2023-03-16T08:14:46.780Z,4.10
2023-03-16T08:17:19.183Z,4.00
2023-03-16T08:19:48.965Z,4.20
2023-03-16T08:22:19.028Z,4.30
2023-03-16T08:24:49.083Z,4.30
2023-03-16T08:27:19.783Z,4.50
2023-03-16T08:29:49.592Z,4.60
2023-03-16T08:32:22.079Z,4.70
2023-03-16T08:34:52.595Z,4.70
2023-03-16T08:37:22.389Z,4.80
2023-03-16T08:39:53.155Z,5.00
2023-03-16T08:42:23.800Z,5.00
2023-03-16T08:44:55.275Z,5.00
2023-03-16T08:47:27.685Z,5.30
2023-03-16T08:49:57.496Z,5.40
2023-03-16T08:52:27.256Z,5.20
2023-03-16T08:55:03.412Z,5.30
2023-03-16T08:57:34.390Z,5.30
2023-03-16T09:00:12.638Z,5.60
2023-03-16T09:02:45.749Z,5.70
2023-03-16T09:05:18.276Z,5.70
2023-03-16T09:07:48.997Z,5.70
2023-03-16T09:10:19.860Z,6.00
2023-03-16T09:12:49.642Z,6.10
2023-03-16T09:15:19.663Z,6.10
2023-03-16T09:17:53.204Z,6.30
2023-03-16T09:20:26.999Z,6.30
2023-03-16T09:22:59.676Z,6.50
2023-03-16T09:25:29.715Z,6.70
2023-03-16T09:28:00.557Z,6.90
2023-03-16T09:30:31.149Z,6.80
2023-03-16T09:33:04.269Z,7.00
2023-03-16T09:35:35.276Z,6.80
2023-03-16T09:38:07.277Z,7.20
2023-03-16T09:40:39.590Z,7.20
2023-03-16T09:43:24.955Z,7.10
2023-03-16T09:46:03.998Z,7.50
2023-03-16T09:48:41.195Z,7.80
2023-03-16T09:51:21.059Z,8.10
2023-03-16T09:53:56.598Z,7.60
2023-03-16T09:56:32.258Z,7.60
2023-03-16T09:59:03.232Z,7.60
2023-03-16T10:01:42.700Z,7.90
2023-03-16T10:04:25.017Z,8.10
2023-03-16T10:07:03.443Z,8.30
2023-03-16T10:09:39.620Z,8.50
2023-03-16T10:12:11.371Z,8.30
2023-03-16T10:14:47.708Z,8.40
2023-03-16T10:17:20.903Z,8.00
2023-03-16T10:19:58.059Z,8.10
2023-03-16T10:22:30.498Z,8.00
2023-03-16T10:25:09.368Z,8.50
2023-03-16T10:27:42.048Z,8.60
2023-03-16T10:30:28.300Z,8.70
2023-03-16T10:32:59.574Z,9.10
2023-03-16T10:35:43.225Z,9.20
2023-03-16T10:38:30.947Z,8.90
2023-03-16T10:41:00.825Z,8.70
2023-03-16T10:43:32.262Z,9.10
2023-03-16T10:46:04.242Z,9.50
2023-03-16T10:48:36.012Z,9.80
2023-03-16T10:51:13.716Z,10.00
2023-03-16T10:53:45.886Z,9.90
2023-03-16T10:56:22.643Z,9.80
2023-03-16T10:58:52.431Z,9.70
2023-03-16T11:01:26.879Z,9.80
2023-03-16T11:03:58.098Z,9.70
2023-03-16T11:06:33.242Z,10.00
2023-03-16T11:09:08.896Z,9.50
2023-03-16T11:11:39.792Z,9.50
2023-03-16T11:14:16.503Z,9.30
2023-03-16T11:16:53.154Z,9.70
2023-03-16T11:19:27.318Z,9.70
2023-03-16T11:22:04.643Z,9.50
2023-03-16T11:24:45.199Z,9.70
2023-03-16T11:27:21.430Z,10.40
2023-03-16T11:30:01.862Z,10.40
2023-03-16T11:32:36.457Z,10.20
2023-03-16T11:35:14.710Z,10.30
2023-03-16T11:37:59.407Z,10.20
2023-03-16T11:40:41.188Z,10.50
2023-03-16T11:43:42.381Z,10.40
2023-03-16T11:46:20.752Z,10.30
2023-03-16T11:48:59.995Z,10.50
2023-03-16T11:51:42.342Z,10.80
2023-03-16T11:54:30.845Z,10.60
2023-03-16T11:57:03.476Z,10.20
2023-03-16T12:00:01.531Z,10.10
2023-03-16T12:02:42.315Z,10.40
2023-03-16T12:05:33.406Z,10.80
2023-03-16T12:08:15.165Z,10.90
2023-03-16T12:10:54.670Z,10.50
2023-03-16T12:13:37.675Z,10.40
2023-03-16T12:16:13.081Z,10.90
2023-03-16T12:18:48.490Z,10.70
2023-03-16T12:21:23.074Z,10.90
2023-03-16T12:23:55.408Z,10.50
2023-03-16T12:26:31.510Z,11.10
2023-03-16T12:29:05.731Z,10.90
2023-03-16T12:31:44.127Z,10.90
2023-03-16T12:34:25.934Z,11.00
2023-03-16T12:37:17.110Z,11.10
2023-03-16T12:40:12.261Z,11.00
2023-03-16T12:42:56.265Z,11.00
2023-03-16T12:45:35.257Z,11.20
2023-03-16T12:48:17.317Z,11.20
2023-03-16T12:50:55.919Z,11.70
2023-03-16T12:53:31.329Z,11.10
2023-03-16T12:56:08.776Z,11.40
2023-03-16T12:58:45.508Z,11.50
2023-03-16T13:01:16.821Z,11.60
2023-03-16T13:03:49.547Z,12.00
2023-03-16T13:06:24.906Z,11.80
2023-03-16T13:08:59.748Z,11.80
2023-03-16T13:11:30.190Z,11.50
2023-03-16T13:14:13.495Z,11.90
2023-03-16T13:16:45.482Z,12.00
2023-03-16T13:19:29.919Z,12.00
2023-03-16T13:22:20.946Z,12.10
2023-03-16T13:24:56.071Z,12.00
2023-03-16T13:27:30.724Z,11.80
2023-03-16T13:30:05.326Z,11.70
2023-03-16T13:32:36.626Z,11.70
2023-03-16T13:35:10.771Z,11.40
2023-03-16T13:37:43.706Z,11.40
2023-03-16T13:40:23.199Z,11.20
2023-03-16T13:42:56.236Z,11.30
2023-03-16T13:45:34.745Z,11.40
2023-03-16T13:48:05.534Z,11.30
2023-03-16T13:50:38.665Z,11.20
2023-03-16T13:53:17.239Z,11.10
2023-03-16T13:55:50.276Z,11.10
2023-03-16T13:58:25.966Z,11.20
2023-03-16T14:01:03.520Z,11.20
2023-03-16T14:03:37.033Z,11.40
2023-03-16T14:06:07.985Z,11.70
2023-03-16T14:08:38.177Z,11.90
2023-03-16T14:11:08.108Z,12.00
2023-03-16T14:13:39.591Z,12.30
2023-03-16T14:16:18.638Z,12.10
2023-03-16T14:18:51.083Z,12.10
2023-03-16T14:21:24.701Z,12.20
2023-03-16T14:23:56.571Z,12.00
2023-03-16T14:26:27.203Z,12.20
2023-03-16T14:29:00.680Z,12.30
2023-03-16T14:31:41.079Z,12.20
2023-03-16T14:34:24.615Z,12.50
2023-03-16T14:36:54.363Z,12.30
2023-03-16T14:39:29.808Z,12.10
2023-03-16T14:41:59.676Z,12.00
2023-03-16T14:44:34.490Z,12.10
2023-03-16T14:47:08.531Z,12.10
2023-03-16T14:49:43.323Z,12.10
2023-03-16T14:52:24.874Z,11.90
2023-03-16T14:54:55.250Z,11.90
2023-03-16T14:57:25.936Z,11.80
2023-03-16T14:59:56.135Z,12.00
2023-03-16T15:02:32.480Z,11.90
2023-03-16T15:05:03.738Z,11.90
2023-03-16T15:07:36.830Z,11.80
2023-03-16T15:10:13.329Z,11.80
2023-03-16T15:12:50.345Z,11.80
2023-03-16T15:15:22.978Z,11.70
2023-03-16T15:17:56.289Z,11.80
2023-03-16T15:20:32.778Z,11.90
2023-03-16T15:23:04.935Z,11.90
2023-03-16T15:25:39.880Z,11.90
2023-03-16T15:28:17.379Z,12.00
2023-03-16T15:30:48.778Z,11.90
2023-03-16T15:33:22.186Z,12.00
2023-03-16T15:35:55.593Z,11.90
2023-03-16T15:38:28.044Z,11.70
2023-03-16T15:40:58.307Z,11.70
2023-03-16T15:43:31.072Z,11.60
2023-03-16T15:46:04.062Z,11.70
2023-03-16T15:48:36.957Z,11.70
2023-03-16T15:51:11.574Z,11.70
2023-03-16T15:53:43.829Z,11.70
2023-03-16T15:56:16.599Z,11.70
2023-03-16T15:58:48.283Z,11.60
2023-03-16T16:01:24.342Z,11.60
2023-03-16T16:03:59.115Z,11.60
2023-03-16T16:06:30.475Z,11.50
2023-03-16T16:09:00.313Z,11.50
2023-03-16T16:11:30.977Z,11.50
2023-03-16T16:14:02.188Z,11.40
2023-03-16T16:16:33.794Z,11.40
2023-03-16T16:19:06.204Z,11.40
2023-03-16T16:21:36.807Z,11.40
2023-03-16T16:24:07.268Z,11.30
2023-03-16T16:26:51.687Z,11.30
2023-03-16T16:29:26.744Z,11.30
2023-03-16T16:31:56.859Z,11.20
2023-03-16T16:34:29.459Z,11.20
2023-03-16T16:36:59.941Z,11.10
2023-03-16T16:39:29.847Z,11.10
2023-03-16T16:41:59.749Z,11.10
2023-03-16T16:44:35.285Z,11.00
2023-03-16T16:47:08.363Z,11.00
2023-03-16T16:49:40.792Z,10.90
2023-03-16T16:52:15.294Z,10.90
2023-03-16T16:54:44.901Z,10.80
2023-03-16T16:57:20.366Z,10.70
2023-03-16T16:59:51.540Z,10.70
2023-03-16T17:02:31.949Z,10.70
2023-03-16T17:05:04.419Z,10.60
2023-03-16T17:07:34.217Z,10.60
2023-03-16T17:10:04.135Z,10.50
2023-03-16T17:12:35.620Z,10.40
2023-03-16T17:15:05.453Z,10.40
2023-03-16T17:17:35.215Z,10.40
2023-03-16T17:20:16.533Z,10.40
2023-03-16T17:22:49.385Z,10.30
2023-03-16T17:25:19.791Z,10.30
2023-03-16T17:27:51.372Z,10.10
2023-03-16T17:30:27.599Z,10.10
2023-03-16T17:32:59.461Z,10.10
2023-03-16T17:35:32.265Z,10.00
2023-03-16T17:38:02.217Z,10.00
2023-03-16T17:40:33.597Z,9.90
2023-03-16T17:43:03.632Z,9.80
2023-03-16T17:45:33.816Z,9.90
2023-03-16T17:48:05.267Z,9.70
2023-03-16T17:50:37.589Z,9.70
2023-03-16T17:53:08.040Z,9.70
2023-03-16T17:55:38.740Z,9.60
2023-03-16T17:58:08.937Z,9.60
2023-03-16T18:00:40.384Z,9.50
2023-03-16T18:03:15.055Z,9.50
2023-03-16T18:05:47.902Z,9.40
2023-03-16T18:08:20.571Z,9.40
2023-03-16T18:10:52.936Z,9.40
2023-03-16T18:13:27.017Z,9.40
2023-03-16T18:15:57.766Z,9.30
2023-03-16T18:18:31.246Z,9.30
2023-03-16T18:21:03.742Z,9.20
2023-03-16T18:23:35.332Z,9.20
2023-03-16T18:26:08.945Z,9.20
2023-03-16T18:28:38.722Z,9.20
2023-03-16T18:31:12.621Z,9.10
2023-03-16T18:33:45.613Z,9.10
2023-03-16T18:36:19.876Z,9.00
2023-03-16T18:38:51.078Z,9.00
2023-03-16T18:41:25.329Z,8.90
2023-03-16T18:43:56.705Z,8.80
2023-03-16T18:46:29.069Z,9.00
2023-03-16T18:49:02.101Z,8.80
2023-03-16T18:51:34.704Z,8.80
2023-03-16T18:54:04.928Z,8.80
2023-03-16T18:56:34.779Z,8.80
2023-03-16T18:59:04.577Z,8.70
2023-03-16T19:01:36.147Z,8.70
2023-03-16T19:04:06.664Z,8.70
2023-03-16T19:06:39.336Z,8.60
2023-03-16T19:09:15.649Z,8.60
2023-03-16T19:11:46.973Z,8.50
2023-03-16T19:14:19.336Z,8.50
2023-03-16T19:16:49.615Z,8.50
2023-03-16T19:19:21.345Z,8.40
2023-03-16T19:21:56.420Z,8.50
2023-03-16T19:24:29.311Z,8.40
2023-03-16T19:26:59.563Z,8.30
2023-03-16T19:29:33.554Z,8.30
2023-03-16T19:32:03.877Z,8.20
2023-03-16T19:34:33.634Z,8.10
2023-03-16T19:37:06.426Z,8.10
2023-03-16T19:39:36.448Z,8.10
2023-03-16T19:42:07.525Z,8.00
2023-03-16T19:44:37.468Z,8.10
2023-03-16T19:47:08.392Z,8.00
2023-03-16T19:49:38.182Z,8.00
2023-03-16T19:52:14.487Z,7.90
2023-03-16T19:54:44.296Z,7.80
2023-03-16T19:57:16.631Z,7.80
2023-03-16T19:59:49.567Z,7.70
2023-03-16T20:02:29.226Z,7.70
2023-03-16T20:04:59.418Z,7.70
2023-03-16T20:07:37.782Z,7.80
2023-03-16T20:10:08.242Z,7.60
2023-03-16T20:12:45.603Z,7.60
2023-03-16T20:15:19.955Z,7.60
2023-03-16T20:17:50.645Z,7.60
2023-03-16T20:20:23.531Z,7.60
2023-03-16T20:22:59.388Z,7.60
2023-03-16T20:25:33.001Z,7.50
2023-03-16T20:28:05.199Z,7.50
2023-03-16T20:30:35.133Z,7.40
2023-03-16T20:33:04.926Z,7.40
2023-03-16T20:35:34.903Z,7.30
2023-03-16T20:38:13.179Z,7.30
2023-03-16T20:40:43.591Z,7.20
2023-03-16T20:43:25.260Z,7.30
2023-03-16T20:45:56.807Z,7.30
2023-03-16T20:48:27.568Z,7.30
2023-03-16T20:51:00.135Z,7.30
2023-03-16T20:53:32.579Z,7.40
2023-03-16T20:56:03.125Z,7.30
2023-03-16T20:58:34.565Z,7.30
2023-03-16T21:01:05.735Z,7.30
2023-03-16T21:03:37.125Z,7.30
2023-03-16T21:06:22.343Z,7.30
2023-03-16T21:08:56.684Z,7.20
2023-03-16T21:11:28.510Z,7.30
2023-03-16T21:13:58.372Z,7.30
2023-03-16T21:16:28.309Z,7.30
2023-03-16T21:18:58.157Z,7.20
2023-03-16T21:21:28.266Z,7.20
2023-03-16T21:24:03.432Z,7.20
2023-03-16T21:26:34.785Z,7.10
2023-03-16T21:29:10.126Z,7.20
2023-03-16T21:31:39.986Z,7.10
2023-03-16T21:34:20.663Z,7.00
2023-03-16T21:36:50.540Z,7.10
2023-03-16T21:39:25.399Z,7.10
2023-03-16T21:41:55.491Z,7.10
2023-03-16T21:44:26.100Z,7.10
2023-03-16T21:46:55.985Z,7.10
2023-03-16T21:49:26.403Z,7.10
2023-03-16T21:51:56.680Z,7.00
2023-03-16T21:54:28.980Z,7.20
2023-03-16T21:56:59.644Z,7.10
2023-03-16T21:59:29.447Z,7.10
2023-03-16T22:02:02.329Z,7.00
2023-03-16T22:04:32.465Z,6.90
2023-03-16T22:07:02.247Z,7.00
2023-03-16T22:09:34.884Z,7.00
2023-03-16T22:12:04.746Z,7.00
2023-03-16T22:14:34.497Z,6.90
2023-03-16T22:17:04.347Z,6.90
2023-03-16T22:19:34.780Z,6.90
2023-03-16T22:22:04.626Z,6.90
2023-03-16T22:24:37.472Z,7.00
2023-03-16T22:27:08.869Z,6.90
2023-03-16T22:29:44.061Z,6.90
2023-03-16T22:32:19.100Z,6.80
2023-03-16T22:34:51.056Z,6.90
2023-03-16T22:37:24.597Z,6.80
2023-03-16T22:39:58.612Z,6.80
2023-03-16T22:42:31.223Z,6.80
2023-03-16T22:45:01.792Z,6.80
2023-03-16T22:47:34.004Z,6.80
2023-03-16T22:50:03.759Z,6.90
2023-03-16T22:52:36.347Z,6.80
2023-03-16T22:55:11.241Z,6.70
2023-03-16T22:57:41.052Z,6.80
2023-03-16T23:00:14.313Z,6.80
2023-03-16T23:02:44.891Z,6.70
2023-03-16T23:05:22.781Z,6.60
2023-03-16T23:07:52.650Z,6.60
2023-03-16T23:10:28.402Z,6.60
2023-03-16T23:12:59.415Z,6.60
2023-03-16T23:15:31.351Z,6.60
2023-03-16T23:18:01.419Z,6.60
2023-03-16T23:20:33.508Z,6.60
2023-03-16T23:23:04.161Z,6.70
2023-03-16T23:25:38.051Z,6.50
2023-03-16T23:28:09.103Z,6.50
2023-03-16T23:30:39.245Z,6.40
2023-03-16T23:33:09.155Z,6.40
2023-03-16T23:35:39.036Z,6.40
2023-03-16T23:38:08.888Z,6.30
2023-03-16T23:40:42.019Z,6.30
2023-03-16T23:43:12.032Z,6.30
2023-03-16T23:45:44.419Z,6.30
2023-03-16T23:48:18.082Z,6.40
2023-03-16T23:50:50.383Z,6.40
2023-03-16T23:53:21.765Z,6.30
2023-03-16T23:55:54.192Z,6.30
2023-03-16T23:58:24.001Z,6.40
